Time;durP1;ratioP1;P1;durP2;ratioP2;P2;SDS_P1;SDS_P2;PMS_P1;PMS_P2;Temp;Humidity;BMP_temperature;BMP_pressure;BME280_temperature;BME280_humidity;BME280_pressure;Samples;Min_cycle;Max_cycle;Signal;HPM_P1;HPM_P2
2020/12/12 00:02:15;;;;;;;25.57;14.93;;;;;7.30;98527.00;;;;10426970;28;20304;-80
2020/12/12 00:07:17;;;;;;;23.77;14.57;;;;;7.30;98526.00;;;;10426156;28;20819;-80
2020/12/12 00:12:19;;;;;;;27.10;14.97;;;;;7.30;98529.00;;;;10436384;28;20234;-80
2020/12/12 00:17:21;;;;;;;22.03;14.13;;;;;7.30;98538.00;;;;10436527;28;20201;-80
2020/12/12 00:22:24;;;;;;;22.77;13.53;;;;;7.30;98528.00;;;;10435736;28;20320;-80
2020/12/12 00:27:39;;;;;;;22.47;14.33;;;;;7.30;98536.00;;;;10429420;28;20213;-80
2020/12/12 00:32:41;;;;;;;23.90;13.57;;;;;7.30;98537.00;;;;10443557;28;20203;-80
2020/12/12 00:37:44;;;;;;;24.60;13.17;;;;;7.30;98530.00;;;;10460648;28;20202;-80
2020/12/12 00:42:46;;;;;;;20.13;12.20;;;;;7.30;98538.00;;;;10454984;28;20230;-80
2020/12/12 00:47:48;;;;;;;21.87;12.60;;;;;7.40;98538.00;;;;10414134;28;20591;-80
2020/12/12 00:52:51;;;;;;;22.43;12.60;;;;;7.40;98531.00;;;;10442773;28;20653;-80
2020/12/12 00:57:53;;;;;;;20.13;11.93;;;;;7.40;98550.00;;;;10434981;28;20267;-80
2020/12/12 01:02:55;;;;;;;23.00;12.77;;;;;7.50;98549.00;;;;10448233;28;20218;-79
2020/12/12 01:07:58;;;;;;;24.50;12.90;;;;;7.50;98557.00;;;;10443531;28;20222;-79
2020/12/12 01:13:01;;;;;;;16.70;10.90;;;;;7.50;98556.00;;;;10441859;28;20267;-80
2020/12/12 01:18:03;;;;;;;22.77;14.03;;;;;7.50;98561.00;;;;10451386;28;20252;-79
2020/12/12 01:23:06;;;;;;;23.13;13.77;;;;;7.60;98565.00;;;;10456978;28;20658;-79
2020/12/12 01:28:08;;;;;;;27.10;14.40;;;;;7.60;98572.00;;;;10432931;28;20205;-79
2020/12/12 01:33:11;;;;;;;32.67;15.57;;;;;7.60;98573.00;;;;10422809;28;20612;-79
2020/12/12 01:38:13;;;;;;;39.47;17.17;;;;;7.60;98572.00;;;;10433289;28;20202;-80
2020/12/12 01:43:15;;;;;;;45.43;19.60;;;;;7.60;98575.00;;;;10437618;28;20218;-79
2020/12/12 01:48:17;;;;;;;35.97;18.67;;;;;7.60;98574.00;;;;10439708;28;20209;-80
2020/12/12 01:53:20;;;;;;;36.63;17.80;;;;;7.50;98584.00;;;;10414108;28;20206;-80
2020/12/12 01:58:22;;;;;;;40.07;17.43;;;;;7.40;98590.00;;;;10438384;28;20206;-80
2020/12/12 02:03:27;;;;;;;36.03;17.70;;;;;7.20;98598.00;;;;10447546;28;20218;-81
2020/12/12 02:08:29;;;;;;;42.57;19.30;;;;;7.20;98601.00;;;;10452995;28;20223;-80
2020/12/12 02:13:32;;;;;;;41.87;19.80;;;;;7.30;98604.00;;;;10473572;28;20263;-80
2020/12/12 02:18:38;;;;;;;42.40;20.10;;;;;7.40;98617.00;;;;10459964;28;20228;-80
2020/12/12 02:23:40;;;;;;;46.70;21.27;;;;;7.50;98619.00;;;;10426372;28;20214;-80
2020/12/12 02:28:53;;;;;;;53.97;21.40;;;;;7.50;98614.00;;;;10457653;28;20561;-80
2020/12/12 02:33:55;;;;;;;57.63;22.60;;;;;7.50;98615.00;;;;10453119;28;20224;-80
2020/12/12 02:38:57;;;;;;;43.93;22.90;;;;;7.50;98622.00;;;;10445700;28;20210;-80
2020/12/12 02:44:00;;;;;;;52.60;22.33;;;;;7.50;98623.00;;;;10441793;28;20218;-80
2020/12/12 02:49:03;;;;;;;62.73;23.00;;;;;7.50;98625.00;;;;10445576;28;20197;-80
2020/12/12 02:54:06;;;;;;;52.50;24.23;;;;;7.50;98638.00;;;;10461834;28;20206;-80
2020/12/12 02:59:08;;;;;;;59.60;24.20;;;;;7.50;98640.00;;;;10428466;28;20199;-80
2020/12/12 03:04:10;;;;;;;69.77;25.10;;;;;7.50;98634.00;;;;10425173;28;20218;-80
2020/12/12 03:09:13;;;;;;;61.50;24.83;;;;;7.50;98645.00;;;;10434892;28;20195;-80
2020/12/12 03:14:15;;;;;;;56.50;24.07;;;;;7.50;98651.00;;;;10456157;28;20651;-79
2020/12/12 03:19:17;;;;;;;57.10;24.80;;;;;7.50;98653.00;;;;10445834;28;20208;-80
2020/12/12 03:24:19;;;;;;;66.93;24.93;;;;;7.60;98662.00;;;;10457832;28;20218;-80
2020/12/12 03:29:21;;;;;;;66.00;24.33;;;;;7.60;98668.00;;;;10447129;28;20530;-80
2020/12/12 03:34:23;;;;;;;59.43;24.87;;;;;7.60;98665.00;;;;10443030;28;20202;-80
2020/12/12 03:39:25;;;;;;;68.43;26.37;;;;;7.60;98669.00;;;;10426975;28;20206;-80
2020/12/12 03:44:28;;;;;;;66.33;25.03;;;;;7.60;98678.00;;;;10450073;28;20216;-80
2020/12/12 03:49:30;;;;;;;69.50;25.87;;;;;7.60;98678.00;;;;10464447;28;21041;-80
2020/12/12 03:54:32;;;;;;;60.73;26.30;;;;;7.60;98667.00;;;;10457104;28;20202;-79
2020/12/12 03:59:35;;;;;;;71.87;25.97;;;;;7.70;98678.00;;;;10467537;28;20198;-79
2020/12/12 04:04:37;;;;;;;70.67;24.70;;;;;7.70;98688.00;;;;10441839;28;20206;-79
2020/12/12 04:09:39;;;;;;;81.23;25.00;;;;;7.70;98684.00;;;;10452702;28;20631;-80
2020/12/12 04:14:41;;;;;;;66.53;25.37;;;;;7.70;98687.00;;;;10435749;28;20277;-80
2020/12/12 04:19:45;;;;;;;64.50;25.43;;;;;7.70;98691.00;;;;10465845;28;20217;-80
2020/12/12 04:24:48;;;;;;;62.73;23.67;;;;;7.70;98699.00;;;;10451325;28;20205;-80
2020/12/12 04:29:50;;;;;;;64.63;23.37;;;;;7.70;98698.00;;;;10459912;28;20210;-80
2020/12/12 04:34:52;;;;;;;64.30;24.00;;;;;7.70;98697.00;;;;10476048;28;20221;-79
2020/12/12 04:40:04;;;;;;;70.33;24.97;;;;;7.70;98700.00;;;;10454782;28;20204;-80
2020/12/12 04:45:06;;;;;;;67.63;24.07;;;;;7.70;98709.00;;;;10461959;28;20248;-80
2020/12/12 04:50:10;;;;;;;74.10;26.80;;;;;7.70;98716.00;;;;10461069;28;20748;-79
2020/12/12 04:55:12;;;;;;;68.87;23.73;;;;;7.80;98730.00;;;;10473145;28;20245;-79
2020/12/12 05:00:15;;;;;;;64.80;24.83;;;;;7.70;98740.00;;;;10450630;28;20218;-79
2020/12/12 05:05:18;;;;;;;69.43;23.77;;;;;7.70;98751.00;;;;10443231;28;20218;-79
2020/12/12 05:10:20;;;;;;;67.93;23.07;;;;;7.70;98746.00;;;;10464728;28;20210;-79
2020/12/12 05:15:24;;;;;;;59.23;24.97;;;;;7.70;98753.00;;;;10445425;28;21000;-79
2020/12/12 05:20:26;;;;;;;72.00;24.63;;;;;7.80;98774.00;;;;10458599;28;20210;-79
2020/12/12 05:25:28;;;;;;;70.87;25.33;;;;;7.80;98778.00;;;;10450859;28;20205;-79
2020/12/12 05:30:32;;;;;;;70.43;24.57;;;;;7.80;98782.00;;;;10457947;28;20198;-80
2020/12/12 05:35:35;;;;;;;62.73;23.03;;;;;7.80;98781.00;;;;10458009;28;20198;-80
2020/12/12 05:40:38;;;;;;;60.27;22.33;;;;;7.80;98794.00;;;;10438195;28;20210;-80
2020/12/12 05:45:41;;;;;;;54.93;20.07;;;;;7.80;98804.00;;;;10476419;28;20224;-80
2020/12/12 05:50:43;;;;;;;48.67;17.73;;;;;7.80;98807.00;;;;10437093;28;20214;-80
2020/12/12 05:55:46;;;;;;;51.37;17.33;;;;;7.80;98816.00;;;;10440100;28;20199;-80
2020/12/12 06:00:48;;;;;;;47.63;19.63;;;;;7.80;98821.00;;;;10436927;28;20217;-79
2020/12/12 06:06:05;;;;;;;55.67;18.77;;;;;7.80;98830.00;;;;10461151;28;20214;-80
2020/12/12 06:11:08;;;;;;;52.63;20.37;;;;;7.80;98835.00;;;;10452007;28;20553;-80
2020/12/12 06:16:14;;;;;;;51.20;19.37;;;;;7.80;98839.00;;;;10458817;28;20296;-79
2020/12/12 06:21:22;;;;;;;48.17;19.33;;;;;7.80;98848.00;;;;10431231;28;20708;-79
2020/12/12 06:26:49;;;;;;;54.13;21.37;;;;;7.80;98856.00;;;;10476046;28;20202;-79
2020/12/12 06:31:51;;;;;;;50.67;20.87;;;;;7.80;98858.00;;;;10473483;28;20201;-80
2020/12/12 06:36:53;;;;;;;55.57;20.23;;;;;7.80;98859.00;;;;10462069;28;20194;-80
2020/12/12 06:41:58;;;;;;;51.37;19.87;;;;;7.70;98867.00;;;;10476880;28;20222;-79
2020/12/12 06:47:00;;;;;;;52.43;20.13;;;;;7.70;98875.00;;;;10456687;28;20718;-79
2020/12/12 06:52:03;;;;;;;57.90;19.57;;;;;7.70;98881.00;;;;10455199;28;20202;-79
2020/12/12 06:57:23;;;;;;;59.73;22.17;;;;;7.70;98877.00;;;;10464646;28;20194;-80
2020/12/12 07:02:26;;;;;;;57.83;20.80;;;;;7.70;98891.00;;;;10475059;28;20248;-79
2020/12/12 07:07:29;;;;;;;56.53;18.60;;;;;7.70;98900.00;;;;10464704;28;20611;-79
2020/12/12 07:12:33;;;;;;;54.77;22.33;;;;;7.70;98912.00;;;;10457373;28;20225;-79
2020/12/12 07:17:35;;;;;;;70.37;21.73;;;;;7.70;98912.00;;;;10430432;28;20292;-79
2020/12/12 07:22:38;;;;;;;72.60;23.37;;;;;7.70;98919.00;;;;10472686;28;20221;-79
2020/12/12 07:27:40;;;;;;;65.07;22.43;;;;;7.70;98931.00;;;;10454121;28;20202;-80
2020/12/12 07:32:48;;;;;;;66.83;23.10;;;;;7.70;98932.00;;;;10457927;28;20273;-79
2020/12/12 07:38:02;;;;;;;71.67;23.60;;;;;7.70;98944.00;;;;10472946;28;20286;-80
2020/12/12 07:43:10;;;;;;;69.33;23.07;;;;;7.70;98952.00;;;;10441742;28;20210;-80
2020/12/12 07:48:13;;;;;;;73.67;23.77;;;;;7.70;98960.00;;;;10440148;28;20210;-80
2020/12/12 07:53:18;;;;;;;72.03;22.70;;;;;7.70;98966.00;;;;10461683;28;20222;-80
2020/12/12 07:58:29;;;;;;;76.13;24.37;;;;;7.80;98979.00;;;;10463739;28;20198;-80
2020/12/12 08:03:42;;;;;;;77.60;24.80;;;;;7.80;98983.00;;;;10445522;28;20222;-80
2020/12/12 08:08:54;;;;;;;77.53;23.67;;;;;7.90;98983.00;;;;10466008;28;23367;-79
2020/12/12 08:14:03;;;;;;;78.50;24.60;;;;;7.90;98987.00;;;;10466326;28;20217;-80
2020/12/12 08:19:06;;;;;;;78.07;24.17;;;;;8.00;98999.00;;;;10445115;28;20202;-79
2020/12/12 08:24:08;;;;;;;87.27;25.60;;;;;8.00;99000.00;;;;10466427;28;20222;-79
2020/12/12 08:29:11;;;;;;;89.17;25.83;;;;;8.10;99015.00;;;;10449450;28;20209;-79
2020/12/12 08:34:19;;;;;;;78.20;24.03;;;;;8.20;99030.00;;;;10463071;28;20229;-79
2020/12/12 08:39:26;;;;;;;75.93;26.70;;;;;8.20;99035.00;;;;10473331;28;20206;-79
2020/12/12 08:44:28;;;;;;;84.60;26.10;;;;;8.30;99043.00;;;;10458662;28;20206;-79
2020/12/12 08:49:55;;;;;;;74.77;25.23;;;;;8.30;99059.00;;;;10452077;28;20269;-79
2020/12/12 08:55:01;;;;;;;77.53;25.83;;;;;8.40;99055.00;;;;10490607;28;20214;-79
2020/12/12 09:00:06;;;;;;;80.70;25.17;;;;;8.50;99057.00;;;;10454880;28;20228;-79
2020/12/12 09:05:11;;;;;;;84.07;26.00;;;;;8.70;99061.00;;;;10433357;28;20631;-79
2020/12/12 09:10:14;;;;;;;92.17;28.03;;;;;8.80;99079.00;;;;10446141;28;20210;-79
2020/12/12 09:15:19;;;;;;;89.90;27.33;;;;;8.80;99089.00;;;;10459043;28;20198;-79
2020/12/12 09:20:21;;;;;;;77.40;27.03;;;;;8.90;99097.00;;;;10539671;27;20228;-79
2020/12/12 09:25:24;;;;;;;74.17;26.60;;;;;8.90;99100.00;;;;10532247;28;20208;-80
2020/12/12 09:30:27;;;;;;;83.87;27.77;;;;;9.00;99106.00;;;;10510196;28;20200;-80
2020/12/12 09:42:58;;;;;;;76.20;25.13;;;;;8.90;99133.00;;;;10538641;27;20217;-81
2020/12/12 09:48:26;;;;;;;70.50;25.20;;;;;8.90;99144.00;;;;10517061;28;20213;-81
2020/12/12 09:53:28;;;;;;;72.27;26.63;;;;;8.90;99149.00;;;;10514098;28;20214;-82
2020/12/12 09:58:36;;;;;;;73.20;25.80;;;;;9.00;99160.00;;;;10525289;28;20190;-81
2020/12/12 10:03:39;;;;;;;74.93;27.57;;;;;9.10;99163.00;;;;10528444;28;20227;-81
2020/12/12 10:08:41;;;;;;;80.47;27.80;;;;;9.30;99167.00;;;;10558939;28;20654;-82
2020/12/12 10:13:43;;;;;;;78.13;27.10;;;;;9.40;99165.00;;;;10521087;28;20204;-79
2020/12/12 10:18:46;;;;;;;80.60;28.60;;;;;9.40;99174.00;;;;10549976;28;20623;-81
2020/12/12 10:23:48;;;;;;;68.63;26.17;;;;;9.30;99178.00;;;;10530251;27;20218;-81
2020/12/12 10:28:52;;;;;;;71.67;25.73;;;;;9.20;99186.00;;;;10518878;28;20208;-81
2020/12/12 10:33:54;;;;;;;70.47;27.70;;;;;9.30;99186.00;;;;10524308;28;20213;-80
2020/12/12 10:39:05;;;;;;;78.33;26.63;;;;;9.50;99189.00;;;;10521897;28;20243;-80
2020/12/12 10:44:08;;;;;;;70.10;26.73;;;;;9.50;99195.00;;;;10540251;27;20216;-80
2020/12/12 10:49:10;;;;;;;61.93;24.93;;;;;9.50;99199.00;;;;10525587;28;20284;-79
2020/12/12 10:54:14;;;;;;;61.60;25.73;;;;;9.60;99196.00;;;;10544512;28;20202;-81
2020/12/12 10:59:16;;;;;;;65.63;26.47;;;;;9.70;99200.00;;;;10515952;28;20201;-80
2020/12/12 11:04:19;;;;;;;67.93;26.10;;;;;9.90;99207.00;;;;10542430;28;20699;-80
2020/12/12 11:09:22;;;;;;;58.93;24.93;;;;;10.10;99205.00;;;;10542475;28;20192;-81
2020/12/12 11:14:27;;;;;;;67.67;26.73;;;;;10.00;99210.00;;;;10523796;28;20207;-80
2020/12/12 11:19:29;;;;;;;50.43;23.07;;;;;10.00;99215.00;;;;10535441;28;20253;-80
2020/12/12 11:24:32;;;;;;;59.70;25.13;;;;;10.00;99223.00;;;;10538997;28;20220;-80
2020/12/12 11:29:34;;;;;;;58.53;25.10;;;;;10.10;99226.00;;;;10509469;28;20200;-79
2020/12/12 11:34:40;;;;;;;55.00;24.67;;;;;10.20;99233.00;;;;10524799;28;20201;-79
2020/12/12 11:45:43;;;;;;;53.03;23.90;;;;;10.30;99249.00;;;;10533218;27;20201;-79
2020/12/12 11:50:43;;;;;;;59.70;25.57;;;;;10.20;99251.00;;;;10547051;28;20208;-79
2020/12/12 11:55:45;;;;;;;52.40;24.47;;;;;10.20;99265.00;;;;10551218;28;20223;-78
2020/12/12 12:00:47;;;;;;;52.30;25.10;;;;;10.10;99272.00;;;;10532346;28;20208;-79
2020/12/12 12:05:52;;;;;;;52.77;23.87;;;;;10.20;99268.00;;;;10547025;28;20220;-79
2020/12/12 12:11:18;;;;;;;50.77;23.30;;;;;10.30;99280.00;;;;10533383;28;20416;-79
2020/12/12 12:16:20;;;;;;;58.07;25.77;;;;;10.40;99275.00;;;;10521381;27;20251;-79
2020/12/12 12:21:23;;;;;;;45.67;22.13;;;;;10.60;99291.00;;;;10495163;28;22599;-79
2020/12/12 12:26:25;;;;;;;45.37;22.77;;;;;10.70;99290.00;;;;10529561;28;20221;-78
2020/12/12 12:31:27;;;;;;;48.53;22.53;;;;;10.80;99305.00;;;;10523461;27;20197;-78
2020/12/12 12:36:31;;;;;;;46.47;22.53;;;;;10.90;99307.00;;;;10509051;27;20200;-78
2020/12/12 12:41:34;;;;;;;45.20;21.30;;;;;11.10;99312.00;;;;10528953;28;20225;-78
2020/12/12 12:46:39;;;;;;;46.30;21.07;;;;;10.80;99329.00;;;;10526185;28;20246;-79
2020/12/12 12:51:42;;;;;;;43.50;21.97;;;;;10.60;99333.00;;;;10507768;28;20201;-79
2020/12/12 12:56:44;;;;;;;49.77;21.77;;;;;10.40;99342.00;;;;10518503;28;20200;-79
2020/12/12 13:01:49;;;;;;;41.77;22.17;;;;;10.20;99345.00;;;;10534086;28;20220;-78
2020/12/12 13:06:51;;;;;;;42.67;22.80;;;;;10.00;99361.00;;;;10529380;28;20476;-79
2020/12/12 13:12:06;;;;;;;48.00;23.87;;;;;9.90;99360.00;;;;10532948;28;20231;-79
2020/12/12 13:17:11;;;;;;;49.80;22.93;;;;;9.80;99378.00;;;;10523339;27;20305;-79
2020/12/12 13:22:15;;;;;;;51.53;24.80;;;;;9.80;99389.00;;;;10517451;28;20241;-79
2020/12/12 13:27:17;;;;;;;55.37;25.53;;;;;9.90;99390.00;;;;10515527;28;20225;-79
2020/12/12 13:32:20;;;;;;;61.20;26.63;;;;;9.90;99401.00;;;;10553019;28;20266;-79
2020/12/12 13:37:22;;;;;;;59.47;25.87;;;;;9.80;99407.00;;;;10523262;28;20250;-79
2020/12/12 13:42:24;;;;;;;64.17;28.10;;;;;9.80;99407.00;;;;10552108;27;20523;-79
2020/12/12 13:47:27;;;;;;;59.73;27.37;;;;;9.70;99418.00;;;;10526176;28;20196;-78
2020/12/12 13:52:29;;;;;;;60.30;28.37;;;;;9.70;99417.00;;;;10533446;28;20704;-78
2020/12/12 13:57:31;;;;;;;68.80;31.00;;;;;9.60;99422.00;;;;10540635;28;20642;-78
2020/12/12 14:02:33;;;;;;;65.17;30.77;;;;;9.60;99436.00;;;;10528637;27;20221;-78
2020/12/12 14:07:40;;;;;;;74.30;31.07;;;;;9.50;99444.00;;;;10550478;28;20192;-80
2020/12/12 14:23:25;;;;;;;70.93;31.33;;;;;9.50;99459.00;;;;10523779;27;20220;-78
2020/12/12 14:28:28;;;;;;;67.47;31.17;;;;;9.50;99452.00;;;;10500406;28;20202;-77
2020/12/12 14:39:16;;;;;;;71.90;31.90;;;;;9.40;99462.00;;;;11152670;24;20284;-75
2020/12/12 14:44:18;;;;;;;85.83;33.10;;;;;9.30;99473.00;;;;10022198;29;20562;-75
2020/12/12 14:49:20;;;;;;;78.87;33.83;;;;;9.30;99481.00;;;;10019808;29;20739;-75
2020/12/12 15:36:53;;;;;;;90.53;35.13;;;;;8.90;99547.00;;;;10074875;29;20203;-75
2020/12/12 15:41:55;;;;;;;78.03;35.40;;;;;8.90;99564.00;;;;10184142;24;20200;-75
2020/12/12 15:46:57;;;;;;;80.57;43.07;;;;;8.90;99565.00;;;;10021180;29;20205;-76
2020/12/12 15:52:02;;;;;;;93.60;42.10;;;;;8.90;99570.00;;;;10018444;29;20205;-75
2020/12/12 15:57:05;;;;;;;97.73;37.87;;;;;8.90;99567.00;;;;10044348;29;20209;-75
2020/12/12 16:02:07;;;;;;;91.37;39.20;;;;;8.90;99581.00;;;;10054683;29;20239;-75
2020/12/12 16:07:10;;;;;;;97.47;38.53;;;;;8.90;99585.00;;;;10021972;29;20288;-76
2020/12/12 16:12:12;;;;;;;92.10;39.07;;;;;8.90;99593.00;;;;10045818;29;20261;-75
2020/12/12 16:17:14;;;;;;;89.77;36.70;;;;;8.90;99605.00;;;;10031721;29;20610;-75
2020/12/12 16:22:17;;;;;;;89.33;39.13;;;;;8.80;99593.00;;;;10041997;29;20287;-75
2020/12/12 16:27:20;;;;;;;86.30;38.93;;;;;8.80;99596.00;;;;10023535;29;20268;-74
2020/12/12 16:32:22;;;;;;;96.83;46.27;;;;;8.90;99609.00;;;;10040041;29;20231;-74
2020/12/12 16:37:24;;;;;;;104.80;53.60;;;;;8.90;99607.00;;;;10038837;29;20209;-75
2020/12/12 16:42:27;;;;;;;91.07;40.57;;;;;8.80;99612.00;;;;10044057;29;20284;-75
2020/12/12 16:47:35;;;;;;;92.27;39.43;;;;;8.80;99620.00;;;;10053015;29;20257;-75
2020/12/12 16:52:46;;;;;;;91.20;38.27;;;;;8.80;99631.00;;;;10034118;29;20400;-75
2020/12/12 16:57:52;;;;;;;77.00;35.07;;;;;8.80;99631.00;;;;10042373;29;20209;-74
2020/12/12 17:02:54;;;;;;;73.30;33.00;;;;;8.70;99627.00;;;;10043526;29;20221;-75
2020/12/12 17:07:57;;;;;;;72.50;34.17;;;;;8.70;99641.00;;;;10051453;29;20208;-74
2020/12/12 17:13:01;;;;;;;77.60;36.63;;;;;8.70;99660.00;;;;10063401;29;20304;-73
2020/12/12 17:18:07;;;;;;;71.17;33.03;;;;;8.70;99657.00;;;;10059571;29;20257;-74
2020/12/12 17:23:10;;;;;;;68.87;35.07;;;;;8.70;99669.00;;;;10028982;29;20228;-74
2020/12/12 17:28:12;;;;;;;63.97;32.30;;;;;8.60;99663.00;;;;10044509;29;20721;-75
2020/12/12 17:33:14;;;;;;;59.57;31.60;;;;;8.60;99671.00;;;;10029142;29;20205;-75
2020/12/12 17:38:17;;;;;;;74.33;48.30;;;;;8.60;99680.00;;;;10014269;29;20201;-74
2020/12/12 17:43:19;;;;;;;56.97;37.47;;;;;8.60;99685.00;;;;10044337;29;20229;-74
2020/12/12 17:48:21;;;;;;;48.20;29.17;;;;;8.60;99679.00;;;;10044496;29;20232;-74
2020/12/12 17:53:23;;;;;;;51.33;28.03;;;;;8.60;99687.00;;;;10028958;29;20823;-74
2020/12/12 17:58:26;;;;;;;52.90;27.67;;;;;8.60;99694.00;;;;10028598;29;20900;-74
2020/12/12 18:03:29;;;;;;;53.70;27.47;;;;;8.60;99695.00;;;;10058503;29;20240;-74
2020/12/12 18:08:33;;;;;;;54.73;27.10;;;;;8.60;99705.00;;;;10028358;29;20679;-74
2020/12/12 18:13:35;;;;;;;55.13;28.33;;;;;8.60;99708.00;;;;10043131;29;20741;-74
2020/12/12 18:18:37;;;;;;;70.40;33.60;;;;;8.60;99717.00;;;;10043238;29;20610;-74
2020/12/12 18:23:39;;;;;;;58.30;32.40;;;;;8.60;99723.00;;;;10027797;29;20232;-74
2020/12/12 18:28:41;;;;;;;53.67;32.43;;;;;8.60;99722.00;;;;10043430;29;20212;-74
2020/12/12 18:33:45;;;;;;;58.07;33.47;;;;;8.60;99730.00;;;;10026604;29;20234;-74
2020/12/12 18:38:47;;;;;;;45.63;24.93;;;;;8.50;99737.00;;;;10058370;29;20273;-74
2020/12/12 18:43:51;;;;;;;52.73;29.77;;;;;8.50;99744.00;;;;10042068;29;20646;-74
2020/12/12 18:48:53;;;;;;;47.43;26.43;;;;;8.50;99749.00;;;;10027242;29;20257;-74
2020/12/12 18:53:55;;;;;;;36.47;21.80;;;;;8.50;99756.00;;;;10011680;29;20603;-74
2020/12/12 18:58:58;;;;;;;51.33;27.57;;;;;8.50;99759.00;;;;10042187;29;20324;-74
2020/12/12 19:04:00;;;;;;;49.60;25.17;;;;;8.50;99765.00;;;;10041307;29;20224;-74
2020/12/12 19:09:04;;;;;;;43.03;25.53;;;;;8.50;99771.00;;;;10057606;29;20272;-74
2020/12/12 19:14:08;;;;;;;44.83;27.87;;;;;8.50;99778.00;;;;10056793;29;20213;-74
2020/12/12 19:19:11;;;;;;;40.77;23.80;;;;;8.50;99786.00;;;;10041715;29;20209;-74
2020/12/12 19:24:13;;;;;;;39.97;24.47;;;;;8.50;99794.00;;;;10041231;29;20284;-73
2020/12/12 19:29:18;;;;;;;34.27;23.37;;;;;8.40;99803.00;;;;10026471;29;20252;-73
2020/12/12 19:34:20;;;;;;;36.03;24.40;;;;;8.40;99804.00;;;;10041507;29;20546;-74
2020/12/12 19:39:23;;;;;;;35.93;26.50;;;;;8.40;99811.00;;;;10040918;29;20226;-73
2020/12/12 19:44:26;;;;;;;36.07;24.47;;;;;8.40;99821.00;;;;10043153;29;20232;-73
2020/12/12 19:49:28;;;;;;;36.33;24.70;;;;;8.40;99825.00;;;;10065103;29;20200;-74
2020/12/12 19:54:44;;;;;;;40.53;24.60;;;;;8.40;99820.00;;;;10034983;29;20204;-74
2020/12/12 19:59:47;;;;;;;33.70;22.30;;;;;8.40;99831.00;;;;10032827;29;20201;-74
2020/12/12 20:04:49;;;;;;;37.93;27.43;;;;;8.40;99835.00;;;;10047974;29;20619;-74
2020/12/12 20:09:51;;;;;;;34.13;23.27;;;;;8.30;99833.00;;;;10048016;29;20265;-74
2020/12/12 20:14:54;;;;;;;39.87;25.03;;;;;8.30;99844.00;;;;10062953;29;20205;-74
2020/12/12 20:19:56;;;;;;;34.63;23.10;;;;;8.30;99844.00;;;;10016662;29;20209;-74
2020/12/12 20:25:00;;;;;;;37.60;24.97;;;;;8.30;99840.00;;;;10047602;29;20228;-74
2020/12/12 20:30:03;;;;;;;43.53;25.57;;;;;8.30;99855.00;;;;10032296;29;20268;-73
2020/12/12 20:35:06;;;;;;;45.13;29.47;;;;;8.30;99870.00;;;;10031428;29;20207;-73
2020/12/12 20:40:08;;;;;;;37.30;24.80;;;;;8.30;99859.00;;;;10016000;29;20220;-74
2020/12/12 20:45:10;;;;;;;35.30;22.07;;;;;8.20;99862.00;;;;10046256;29;20285;-74
2020/12/12 20:50:14;;;;;;;35.63;22.10;;;;;8.20;99863.00;;;;10046303;29;20284;-74
2020/12/12 20:55:16;;;;;;;33.83;21.60;;;;;8.10;99886.00;;;;10015342;29;20193;-73
2020/12/12 21:00:18;;;;;;;29.67;20.87;;;;;8.10;99885.00;;;;10015190;29;20273;-74
2020/12/12 21:05:20;;;;;;;32.50;21.07;;;;;8.00;99895.00;;;;10046424;29;20277;-73
2020/12/12 21:10:23;;;;;;;32.60;20.17;;;;;8.10;99904.00;;;;10045700;29;20634;-74
2020/12/12 21:15:26;;;;;;;29.80;20.17;;;;;8.10;99915.00;;;;10015318;29;20305;-74
2020/12/12 21:20:30;;;;;;;30.10;19.77;;;;;8.10;99916.00;;;;10045407;29;20765;-74
2020/12/12 21:25:32;;;;;;;23.07;15.37;;;;;8.10;99914.00;;;;10029796;29;20308;-74
2020/12/12 21:30:34;;;;;;;23.93;17.40;;;;;8.10;99919.00;;;;10029832;29;20659;-74
2020/12/12 21:35:36;;;;;;;23.23;17.20;;;;;8.10;99916.00;;;;10014519;29;20208;-74
2020/12/12 21:40:38;;;;;;;23.20;16.00;;;;;8.10;99920.00;;;;10029230;29;20209;-74
2020/12/12 21:45:40;;;;;;;21.97;15.77;;;;;8.10;99929.00;;;;10043889;29;20334;-74
2020/12/12 21:50:43;;;;;;;25.43;17.37;;;;;8.10;99939.00;;;;10044688;29;20205;-74
2020/12/12 21:55:45;;;;;;;22.83;16.27;;;;;8.10;99943.00;;;;10029235;29;20601;-74
2020/12/12 22:00:47;;;;;;;22.17;16.93;;;;;8.10;99948.00;;;;10042802;29;20261;-74
2020/12/12 22:05:51;;;;;;;18.17;13.97;;;;;8.10;99951.00;;;;10048299;29;20216;-74
2020/12/12 22:10:53;;;;;;;19.43;14.50;;;;;8.00;99975.00;;;;10081593;29;20255;-74
2020/12/12 22:15:55;;;;;;;21.33;14.00;;;;;8.00;99983.00;;;;10055872;29;20216;-74
2020/12/12 22:20:58;;;;;;;14.97;11.80;;;;;8.00;100001.00;;;;10043013;29;20277;-74
2020/12/12 22:26:00;;;;;;;20.67;13.10;;;;;8.00;100005.00;;;;10027804;29;20235;-74
2020/12/12 22:31:03;;;;;;;22.43;15.27;;;;;8.00;100002.00;;;;10027870;29;20550;-74
2020/12/12 22:36:06;;;;;;;24.70;15.93;;;;;7.90;99981.00;;;;10012887;29;20589;-74
2020/12/12 22:41:08;;;;;;;19.57;15.90;;;;;7.90;99993.00;;;;10042659;29;20200;-74
2020/12/12 22:46:10;;;;;;;21.27;15.97;;;;;7.80;100007.00;;;;10042521;29;20264;-74
2020/12/12 22:51:33;;;;;;;24.43;16.10;;;;;7.80;100037.00;;;;10042272;29;20208;-74
2020/12/12 22:56:35;;;;;;;23.27;16.27;;;;;7.90;100051.00;;;;10027354;29;20260;-74
2020/12/12 23:01:37;;;;;;;23.50;15.80;;;;;7.90;100053.00;;;;10057904;29;20217;-74
2020/12/12 23:06:39;;;;;;;23.90;16.27;;;;;7.90;100048.00;;;;10041753;29;20841;-74
2020/12/12 23:11:46;;;;;;;20.63;14.77;;;;;8.00;100063.00;;;;10042132;29;20309;-74
2020/12/12 23:16:48;;;;;;;25.63;14.00;;;;;8.00;100066.00;;;;10027081;29;20223;-74
2020/12/12 23:21:50;;;;;;;18.00;12.20;;;;;8.00;100075.00;;;;10032692;29;20228;-74
2020/12/12 23:26:53;;;;;;;22.10;14.93;;;;;8.00;100069.00;;;;10049437;29;20208;-74
2020/12/12 23:31:55;;;;;;;20.70;13.63;;;;;8.00;100079.00;;;;10033842;29;20212;-74
2020/12/12 23:36:57;;;;;;;15.40;11.63;;;;;8.00;100069.00;;;;10033856;29;20204;-74
2020/12/12 23:42:00;;;;;;;19.20;12.67;;;;;7.90;100095.00;;;;10033445;29;20233;-75
2020/12/12 23:47:04;;;;;;;14.67;10.47;;;;;7.90;100075.00;;;;10033924;29;20261;-75
2020/12/12 23:52:06;;;;;;;20.70;14.10;;;;;7.90;100096.00;;;;10033140;29;20219;-75
2020/12/12 23:57:08;;;;;;;27.50;13.30;;;;;7.90;100093.00;;;;10064160;29;20201;-74
